West Pike, Pennsylvania
Current Conditions -  °F | °C
As of 7:35 PM on Friday 24 Oct 2014 (Local Time) from KN38 Reporting Station
Clear Clear  
Wind Chill: 52°   Ceiling: Unl
Heat Index: 52°   Visibility: 10mi
Dew Point: 28°   Wind: 10mph
Humidity: 41%   Direction: 300°WNW
Pressure: 29.95"   Gusts: NA
Location:  41.6755°N, 77.7071°W
Report Text: KN38 242335Z AUTO 30009KT 10SM CLR 11/M02 A2995 RMK AO2
Loading
Personal Weather Stations






























Interactive Weather Map
Tropical Storm Tracking
New forecast layout! Learn more

10-Day Weather Forecast

Advertisements
Track Severe Weather on mobile